sensor_id;sensor_type;location;lat;lon;timestamp;pressure;altitude;pressure_sealevel;temperature;humidity
45345;BME280;31078;48.304;11.896;2022-10-31T00:01:20;96721.69;;;11.32;88.36
45345;BME280;31078;48.304;11.896;2022-10-31T00:03:47;96726.50;;;11.35;88.77
45345;BME280;31078;48.304;11.896;2022-10-31T00:06:14;96722.53;;;11.41;89.20
45345;BME280;31078;48.304;11.896;2022-10-31T00:08:43;96716.94;;;11.46;89.15
45345;BME280;31078;48.304;11.896;2022-10-31T00:11:11;96718.41;;;11.52;89.34
45345;BME280;31078;48.304;11.896;2022-10-31T00:13:37;96708.63;;;11.51;89.03
45345;BME280;31078;48.304;11.896;2022-10-31T00:16:04;96708.63;;;11.51;89.40
45345;BME280;31078;48.304;11.896;2022-10-31T00:18:31;96716.31;;;11.49;89.20
45345;BME280;31078;48.304;11.896;2022-10-31T00:21:00;96711.47;;;11.46;89.36
45345;BME280;31078;48.304;11.896;2022-10-31T00:23:27;96713.53;;;11.40;89.30
45345;BME280;31078;48.304;11.896;2022-10-31T00:25:53;96714.34;;;11.41;89.24
45345;BME280;31078;48.304;11.896;2022-10-31T00:28:21;96715.94;;;11.42;89.30
45345;BME280;31078;48.304;11.896;2022-10-31T00:30:48;96712.75;;;11.40;89.43
45345;BME280;31078;48.304;11.896;2022-10-31T00:33:14;96702.81;;;11.44;89.47
45345;BME280;31078;48.304;11.896;2022-10-31T00:35:41;96704.91;;;11.47;89.57
45345;BME280;31078;48.304;11.896;2022-10-31T00:38:07;96699.97;;;11.49;89.75
45345;BME280;31078;48.304;11.896;2022-10-31T00:40:33;96708.63;;;11.51;89.50
45345;BME280;31078;48.304;11.896;2022-10-31T00:43:00;96707.50;;;11.52;89.04
45345;BME280;31078;48.304;11.896;2022-10-31T00:45:28;96705.56;;;11.53;88.72
45345;BME280;31078;48.304;11.896;2022-10-31T00:47:54;96711.03;;;11.53;87.69
45345;BME280;31078;48.304;11.896;2022-10-31T00:50:20;96709.22;;;11.48;87.20
45345;BME280;31078;48.304;11.896;2022-10-31T00:52:47;96714.69;;;11.48;86.95
45345;BME280;31078;48.304;11.896;2022-10-31T00:55:13;96719.19;;;11.44;86.23
45345;BME280;31078;48.304;11.896;2022-10-31T00:57:40;96712.75;;;11.40;86.37
45345;BME280;31078;48.304;11.896;2022-10-31T01:00:06;96716.59;;;11.39;86.28
45345;BME280;31078;48.304;11.896;2022-10-31T01:02:35;96717.22;;;11.36;86.08
45345;BME280;31078;48.304;11.896;2022-10-31T01:05:01;96716.88;;;11.29;86.25
45345;BME280;31078;48.304;11.896;2022-10-31T01:07:28;96716.50;;;11.21;86.07
45345;BME280;31078;48.304;11.896;2022-10-31T01:09:55;96716.63;;;11.16;86.17
45345;BME280;31078;48.304;11.896;2022-10-31T01:12:22;96722.72;;;11.13;86.06
45345;BME280;31078;48.304;11.896;2022-10-31T01:14:48;96720.59;;;11.10;86.42
45345;BME280;31078;48.304;11.896;2022-10-31T01:17:15;96719.81;;;11.10;87.02
45345;BME280;31078;48.304;11.896;2022-10-31T01:19:43;96718.53;;;11.07;86.34
45345;BME280;31078;48.304;11.896;2022-10-31T01:22:09;96709.63;;;10.93;84.91
45345;BME280;31078;48.304;11.896;2022-10-31T01:24:35;96721.75;;;10.87;84.49
45345;BME280;31078;48.304;11.896;2022-10-31T01:27:02;96723.63;;;10.78;84.02
45345;BME280;31078;48.304;11.896;2022-10-31T01:29:29;96718.78;;;10.75;84.48
45345;BME280;31078;48.304;11.896;2022-10-31T01:31:55;96713.44;;;10.69;84.65
45345;BME280;31078;48.304;11.896;2022-10-31T01:34:21;96712.97;;;10.67;84.72
45345;BME280;31078;48.304;11.896;2022-10-31T01:36:49;96708.13;;;10.64;84.84
45345;BME280;31078;48.304;11.896;2022-10-31T01:39:16;96713.56;;;10.64;85.30
45345;BME280;31078;48.304;11.896;2022-10-31T01:41:43;96707.97;;;10.61;85.93
45345;BME280;31078;48.304;11.896;2022-10-31T01:46:56;96716.41;;;10.59;86.04
45345;BME280;31078;48.304;11.896;2022-10-31T01:49:24;96712.59;;;10.60;86.73
45345;BME280;31078;48.304;11.896;2022-10-31T01:51:56;96710.69;;;10.61;86.87
45345;BME280;31078;48.304;11.896;2022-10-31T01:54:24;96718.66;;;10.57;85.70
45345;BME280;31078;48.304;11.896;2022-10-31T01:56:52;96718.69;;;10.43;84.78
45345;BME280;31078;48.304;11.896;2022-10-31T01:59:21;96712.06;;;10.36;85.60
45345;BME280;31078;48.304;11.896;2022-10-31T02:01:48;96711.59;;;10.34;86.03
45345;BME280;31078;48.304;11.896;2022-10-31T02:04:16;96712.69;;;10.33;85.64
45345;BME280;31078;48.304;11.896;2022-10-31T02:06:44;96710.47;;;10.35;86.77
45345;BME280;31078;48.304;11.896;2022-10-31T02:09:14;96712.88;;;10.36;86.90
45345;BME280;31078;48.304;11.896;2022-10-31T02:11:41;96714.69;;;10.41;87.58
45345;BME280;31078;48.304;11.896;2022-10-31T02:14:08;96710.84;;;10.42;87.51
45345;BME280;31078;48.304;11.896;2022-10-31T02:16:35;96712.88;;;10.36;87.40
45345;BME280;31078;48.304;11.896;2022-10-31T02:19:02;96712.88;;;10.36;88.26
45345;BME280;31078;48.304;11.896;2022-10-31T02:21:30;96706.03;;;10.39;88.90
45345;BME280;31078;48.304;11.896;2022-10-31T02:24:09;96715.28;;;10.38;88.98
45345;BME280;31078;48.304;11.896;2022-10-31T02:26:45;96722.84;;;10.41;89.24
45345;BME280;31078;48.304;11.896;2022-10-31T02:29:25;96711.84;;;10.46;89.26
45345;BME280;31078;48.304;11.896;2022-10-31T02:32:00;96709.25;;;10.41;89.05
45345;BME280;31078;48.304;11.896;2022-10-31T02:34:31;96718.53;;;10.40;89.16
45345;BME280;31078;48.304;11.896;2022-10-31T02:37:01;96713.56;;;10.42;89.25
45345;BME280;31078;48.304;11.896;2022-10-31T02:39:34;96711.03;;;10.45;89.59
45345;BME280;31078;48.304;11.896;2022-10-31T02:42:03;96707.19;;;10.47;89.22
45345;BME280;31078;48.304;11.896;2022-10-31T02:44:35;96708.81;;;10.48;89.02
45345;BME280;31078;48.304;11.896;2022-10-31T02:47:06;96713.44;;;10.47;88.98
45345;BME280;31078;48.304;11.896;2022-10-31T02:49:36;96710.13;;;10.50;89.20
45345;BME280;31078;48.304;11.896;2022-10-31T02:52:13;96718.28;;;10.50;88.55
45345;BME280;31078;48.304;11.896;2022-10-31T02:54:39;96707.81;;;10.43;88.84
45345;BME280;31078;48.304;11.896;2022-10-31T02:57:06;96715.69;;;10.45;88.74
45345;BME280;31078;48.304;11.896;2022-10-31T02:59:33;96715.69;;;10.45;89.02
45345;BME280;31078;48.304;11.896;2022-10-31T03:02:19;96712.44;;;10.43;88.89
45345;BME280;31078;48.304;11.896;2022-10-31T03:07:35;96716.91;;;10.39;88.73
45345;BME280;31078;48.304;11.896;2022-10-31T03:10:09;96717.72;;;10.39;88.34
45345;BME280;31078;48.304;11.896;2022-10-31T03:12:40;96727.81;;;10.39;87.40
45345;BME280;31078;48.304;11.896;2022-10-31T03:15:12;96729.53;;;10.35;86.76
45345;BME280;31078;48.304;11.896;2022-10-31T03:17:42;96729.66;;;10.30;87.22
45345;BME280;31078;48.304;11.896;2022-10-31T03:20:12;96725.44;;;10.24;87.42
45345;BME280;31078;48.304;11.896;2022-10-31T03:22:39;96722.78;;;10.18;87.57
45345;BME280;31078;48.304;11.896;2022-10-31T03:25:08;96724.41;;;10.19;87.40
45345;BME280;31078;48.304;11.896;2022-10-31T03:27:35;96729.53;;;10.21;87.14
45345;BME280;31078;48.304;11.896;2022-10-31T03:30:04;96730.44;;;10.16;86.32
45345;BME280;31078;48.304;11.896;2022-10-31T03:32:32;96739.34;;;10.08;86.51
45345;BME280;31078;48.304;11.896;2022-10-31T03:35:03;96741.66;;;10.01;87.05
45345;BME280;31078;48.304;11.896;2022-10-31T03:37:32;96735.72;;;9.99;87.36
45345;BME280;31078;48.304;11.896;2022-10-31T03:40:00;96737.44;;;9.95;87.65
45345;BME280;31078;48.304;11.896;2022-10-31T03:42:29;96738.56;;;9.94;87.55
45345;BME280;31078;48.304;11.896;2022-10-31T03:44:57;96738.16;;;9.87;87.82
45345;BME280;31078;48.304;11.896;2022-10-31T03:47:24;96740.38;;;9.85;87.74
45345;BME280;31078;48.304;11.896;2022-10-31T03:49:51;96739.56;;;9.84;87.90
45345;BME280;31078;48.304;11.896;2022-10-31T03:52:22;96736.16;;;9.79;87.75
45345;BME280;31078;48.304;11.896;2022-10-31T03:54:52;96735.66;;;9.77;87.75
45345;BME280;31078;48.304;11.896;2022-10-31T03:57:21;96740.56;;;9.75;87.82
45345;BME280;31078;48.304;11.896;2022-10-31T03:59:50;96740.66;;;9.70;88.22
45345;BME280;31078;48.304;11.896;2022-10-31T04:02:20;96736.03;;;9.70;88.14
45345;BME280;31078;48.304;11.896;2022-10-31T04:04:48;96733.53;;;9.74;88.40
45345;BME280;31078;48.304;11.896;2022-10-31T04:07:15;96728.69;;;9.71;88.25
45345;BME280;31078;48.304;11.896;2022-10-31T04:09:44;96731.13;;;9.72;88.23
45345;BME280;31078;48.304;11.896;2022-10-31T04:12:13;96726.47;;;9.73;88.18
45345;BME280;31078;48.304;11.896;2022-10-31T04:14:41;96723.25;;;9.71;88.16
45345;BME280;31078;48.304;11.896;2022-10-31T04:17:09;96725.47;;;9.68;88.08
45345;BME280;31078;48.304;11.896;2022-10-31T04:19:37;96731.22;;;9.67;88.06
45345;BME280;31078;48.304;11.896;2022-10-31T04:22:04;96726.59;;;9.67;88.25
45345;BME280;31078;48.304;11.896;2022-10-31T04:24:30;96722.25;;;9.66;88.28
45345;BME280;31078;48.304;11.896;2022-10-31T04:26:58;96726.28;;;9.69;88.16
45345;BME280;31078;48.304;11.896;2022-10-31T04:29:25;96731.13;;;9.72;88.27
45345;BME280;31078;48.304;11.896;2022-10-31T04:31:51;96728.56;;;9.76;88.41
45345;BME280;31078;48.304;11.896;2022-10-31T04:34:18;96723.66;;;9.78;88.17
45345;BME280;31078;48.304;11.896;2022-10-31T04:36:44;96718.22;;;9.78;88.29
45345;BME280;31078;48.304;11.896;2022-10-31T04:39:11;96727.78;;;9.75;88.25
45345;BME280;31078;48.304;11.896;2022-10-31T04:41:37;96725.38;;;9.74;88.35
45345;BME280;31078;48.304;11.896;2022-10-31T04:44:06;96735.13;;;9.75;88.13
45345;BME280;31078;48.304;11.896;2022-10-31T04:46:32;96732.72;;;9.73;88.28
45345;BME280;31078;48.304;11.896;2022-10-31T04:48:59;96727.28;;;9.73;88.43
45345;BME280;31078;48.304;11.896;2022-10-31T04:51:25;96729.78;;;9.70;88.36
45345;BME280;31078;48.304;11.896;2022-10-31T04:53:52;96732.13;;;9.62;88.35
45345;BME280;31078;48.304;11.896;2022-10-31T04:56:18;96730.91;;;9.55;88.15
45345;BME280;31078;48.304;11.896;2022-10-31T04:58:45;96736.53;;;9.58;88.01
45345;BME280;31078;48.304;11.896;2022-10-31T05:01:13;96737.16;;;9.55;87.96
45345;BME280;31078;48.304;11.896;2022-10-31T05:03:39;96726.88;;;9.52;88.06
45345;BME280;31078;48.304;11.896;2022-10-31T05:06:06;96728.00;;;9.51;87.89
45345;BME280;31078;48.304;11.896;2022-10-31T05:08:32;96726.88;;;9.52;88.11
45345;BME280;31078;48.304;11.896;2022-10-31T05:10:59;96730.91;;;9.55;88.15
45345;BME280;31078;48.304;11.896;2022-10-31T05:13:26;96726.09;;;9.52;88.28
45345;BME280;31078;48.304;11.896;2022-10-31T05:15:52;96725.28;;;9.51;87.96
45345;BME280;31078;48.304;11.896;2022-10-31T05:18:20;96734.56;;;9.50;88.01
45345;BME280;31078;48.304;11.896;2022-10-31T05:20:46;96741.59;;;9.51;88.08
45345;BME280;31078;48.304;11.896;2022-10-31T05:23:13;96728.81;;;9.52;87.95
45345;BME280;31078;48.304;11.896;2022-10-31T05:25:40;96726.88;;;9.52;88.34
45345;BME280;31078;48.304;11.896;2022-10-31T05:28:06;96723.84;;;9.54;88.30
45345;BME280;31078;48.304;11.896;2022-10-31T05:30:33;96722.94;;;9.58;88.63
45345;BME280;31078;48.304;11.896;2022-10-31T05:33:00;96718.00;;;9.60;88.69
45345;BME280;31078;48.304;11.896;2022-10-31T05:35:29;96716.94;;;9.61;88.86
45345;BME280;31078;48.304;11.896;2022-10-31T05:37:56;96714.00;;;9.58;88.93
45345;BME280;31078;48.304;11.896;2022-10-31T05:40:23;96715.28;;;9.60;88.73
45345;BME280;31078;48.304;11.896;2022-10-31T05:42:51;96715.00;;;9.62;88.89
45345;BME280;31078;48.304;11.896;2022-10-31T05:45:18;96713.59;;;9.64;88.86
45345;BME280;31078;48.304;11.896;2022-10-31T05:47:49;96711.38;;;9.66;89.13
45345;BME280;31078;48.304;11.896;2022-10-31T05:50:16;96716.81;;;9.66;89.04
45345;BME280;31078;48.304;11.896;2022-10-31T05:52:44;96719.66;;;9.61;89.19
45345;BME280;31078;48.304;11.896;2022-10-31T05:55:10;96722.66;;;9.60;88.90
45345;BME280;31078;48.304;11.896;2022-10-31T05:57:37;96716.94;;;9.61;88.83
45345;BME280;31078;48.304;11.896;2022-10-31T06:00:04;96719.94;;;9.60;88.66
45345;BME280;31078;48.304;11.896;2022-10-31T06:02:31;96720.22;;;9.58;88.60
45345;BME280;31078;48.304;11.896;2022-10-31T06:04:59;96720.44;;;9.62;88.58
45345;BME280;31078;48.304;11.896;2022-10-31T06:07:26;96715.00;;;9.62;88.67
45345;BME280;31078;48.304;11.896;2022-10-31T06:09:54;96715.81;;;9.62;88.72
45345;BME280;31078;48.304;11.896;2022-10-31T06:12:20;96719.81;;;9.65;88.35
45345;BME280;31078;48.304;11.896;2022-10-31T06:14:47;96725.47;;;9.68;88.56
45345;BME280;31078;48.304;11.896;2022-10-31T06:17:13;96731.91;;;9.73;87.94
45345;BME280;31078;48.304;11.896;2022-10-31T06:19:40;96737.38;;;9.73;87.97
45345;BME280;31078;48.304;11.896;2022-10-31T06:22:06;96735.13;;;9.75;87.39
45345;BME280;31078;48.304;11.896;2022-10-31T06:24:33;96734.63;;;9.73;86.61
45345;BME280;31078;48.304;11.896;2022-10-31T06:27:01;96731.91;;;9.73;86.88
45345;BME280;31078;48.304;11.896;2022-10-31T06:29:27;96732.72;;;9.73;86.94
45345;BME280;31078;48.304;11.896;2022-10-31T06:31:53;96735.13;;;9.75;86.74
45345;BME280;31078;48.304;11.896;2022-10-31T06:34:20;96738.97;;;9.74;86.70
45345;BME280;31078;48.304;11.896;2022-10-31T06:36:46;96737.84;;;9.75;86.92
45345;BME280;31078;48.304;11.896;2022-10-31T06:39:13;96732.72;;;9.73;86.71
45345;BME280;31078;48.304;11.896;2022-10-31T06:41:39;96736.75;;;9.76;87.23
45345;BME280;31078;48.304;11.896;2022-10-31T06:44:08;96744.00;;;9.80;87.16
45345;BME280;31078;48.304;11.896;2022-10-31T06:46:34;96738.16;;;9.87;87.37
45345;BME280;31078;48.304;11.896;2022-10-31T06:49:00;96734.72;;;9.95;87.40
45345;BME280;31078;48.304;11.896;2022-10-31T06:51:27;96736.53;;;10.00;87.39
45345;BME280;31078;48.304;11.896;2022-10-31T06:53:53;96734.50;;;10.05;87.82
45345;BME280;31078;48.304;11.896;2022-10-31T06:56:20;96743.34;;;10.11;88.04
45345;BME280;31078;48.304;11.896;2022-10-31T06:58:47;96747.56;;;10.17;88.24
45345;BME280;31078;48.304;11.896;2022-10-31T07:01:15;96742.34;;;10.20;88.23
45345;BME280;31078;48.304;11.896;2022-10-31T07:03:41;96744.50;;;10.24;88.27
45345;BME280;31078;48.304;11.896;2022-10-31T07:06:07;96738.28;;;10.32;87.87
45345;BME280;31078;48.304;11.896;2022-10-31T07:08:34;96742.03;;;10.36;87.34
45345;BME280;31078;48.304;11.896;2022-10-31T07:11:00;96739.88;;;10.47;87.13
45345;BME280;31078;48.304;11.896;2022-10-31T07:13:27;96743.16;;;10.57;87.60
45345;BME280;31078;48.304;11.896;2022-10-31T07:15:54;96748.00;;;10.60;87.40
45345;BME280;31078;48.304;11.896;2022-10-31T07:18:22;96746.66;;;10.71;86.70
45345;BME280;31078;48.304;11.896;2022-10-31T07:20:48;96749.94;;;10.82;86.59
45345;BME280;31078;48.304;11.896;2022-10-31T07:23:15;96747.94;;;10.96;86.54
45345;BME280;31078;48.304;11.896;2022-10-31T07:25:41;96747.97;;;11.05;86.47
45345;BME280;31078;48.304;11.896;2022-10-31T07:28:08;96752.69;;;11.13;85.65
45345;BME280;31078;48.304;11.896;2022-10-31T07:30:35;96747.59;;;11.20;85.71
45345;BME280;31078;48.304;11.896;2022-10-31T07:33:02;96749.59;;;11.29;84.93
45345;BME280;31078;48.304;11.896;2022-10-31T07:35:30;96750.72;;;11.36;83.93
45345;BME280;31078;48.304;11.896;2022-10-31T07:37:57;96743.75;;;11.53;83.42
45345;BME280;31078;48.304;11.896;2022-10-31T07:40:24;96746.53;;;11.61;83.52
45345;BME280;31078;48.304;11.896;2022-10-31T07:42:51;96753.13;;;11.69;82.58
45345;BME280;31078;48.304;11.896;2022-10-31T07:45:18;96749.31;;;11.79;82.99
45345;BME280;31078;48.304;11.896;2022-10-31T07:47:45;96735.41;;;11.89;82.37
45345;BME280;31078;48.304;11.896;2022-10-31T07:50:14;96739.28;;;12.05;81.09
45345;BME280;31078;48.304;11.896;2022-10-31T07:52:43;96739.50;;;12.26;82.13
45345;BME280;31078;48.304;11.896;2022-10-31T07:55:09;96735.19;;;12.51;82.00
45345;BME280;31078;48.304;11.896;2022-10-31T07:57:36;96733.75;;;12.71;81.82
45345;BME280;31078;48.304;11.896;2022-10-31T08:00:03;96729.38;;;12.96;81.68
45345;BME280;31078;48.304;11.896;2022-10-31T08:02:30;96730.94;;;13.14;80.33
45345;BME280;31078;48.304;11.896;2022-10-31T08:04:57;96733.19;;;13.29;79.13
45345;BME280;31078;48.304;11.896;2022-10-31T08:07:24;96733.16;;;13.47;77.84
45345;BME280;31078;48.304;11.896;2022-10-31T08:09:52;96727.78;;;13.59;76.06
45345;BME280;31078;48.304;11.896;2022-10-31T08:12:18;96727.97;;;13.54;75.81
45345;BME280;31078;48.304;11.896;2022-10-31T08:14:45;96722.59;;;13.66;74.14
45345;BME280;31078;48.304;11.896;2022-10-31T08:17:12;96719.94;;;13.87;73.39
45345;BME280;31078;48.304;11.896;2022-10-31T08:19:38;96718.38;;;14.07;72.61
45345;BME280;31078;48.304;11.896;2022-10-31T08:22:04;96715.31;;;14.29;72.60
45345;BME280;31078;48.304;11.896;2022-10-31T08:24:31;96723.47;;;14.38;72.24
45345;BME280;31078;48.304;11.896;2022-10-31T08:26:59;96717.94;;;14.47;72.14
45345;BME280;31078;48.304;11.896;2022-10-31T08:29:25;96709.22;;;14.53;71.65
45345;BME280;31078;48.304;11.896;2022-10-31T08:31:52;96710.97;;;14.58;71.92
45345;BME280;31078;48.304;11.896;2022-10-31T08:34:18;96703.53;;;14.58;71.13
45345;BME280;31078;48.304;11.896;2022-10-31T08:36:44;96710.56;;;14.68;72.95
45345;BME280;31078;48.304;11.896;2022-10-31T08:39:11;96699.25;;;14.70;74.20
45345;BME280;31078;48.304;11.896;2022-10-31T08:41:37;96700.97;;;14.74;73.92
45345;BME280;31078;48.304;11.896;2022-10-31T08:44:05;96693.13;;;14.85;74.19
45345;BME280;31078;48.304;11.896;2022-10-31T08:46:32;96691.41;;;14.80;73.36
45345;BME280;31078;48.304;11.896;2022-10-31T08:48:59;96690.53;;;14.88;72.55
45345;BME280;31078;48.304;11.896;2022-10-31T08:51:25;96692.84;;;14.99;72.89
45345;BME280;31078;48.304;11.896;2022-10-31T08:53:52;96688.66;;;15.13;72.81
45345;BME280;31078;48.304;11.896;2022-10-31T08:56:18;96684.56;;;15.20;72.74
45345;BME280;31078;48.304;11.896;2022-10-31T08:58:45;96684.00;;;15.26;71.33
45345;BME280;31078;48.304;11.896;2022-10-31T09:01:13;96687.09;;;15.37;71.40
45345;BME280;31078;48.304;11.896;2022-10-31T09:03:39;96685.16;;;15.50;70.99
45345;BME280;31078;48.304;11.896;2022-10-31T09:06:06;96681.63;;;15.49;70.38
45345;BME280;31078;48.304;11.896;2022-10-31T09:08:34;96679.22;;;15.35;70.13
45345;BME280;31078;48.304;11.896;2022-10-31T09:11:01;96669.63;;;15.54;70.70
45345;BME280;31078;48.304;11.896;2022-10-31T09:13:27;96665.19;;;15.61;70.33
45345;BME280;31078;48.304;11.896;2022-10-31T09:15:55;96666.91;;;15.78;70.58
45345;BME280;31078;48.304;11.896;2022-10-31T09:18:23;96658.44;;;15.96;69.71
45345;BME280;31078;48.304;11.896;2022-10-31T09:20:50;96658.75;;;16.06;69.17
45345;BME280;31078;48.304;11.896;2022-10-31T09:23:17;96658.50;;;16.24;69.00
45345;BME280;31078;48.304;11.896;2022-10-31T09:25:44;96647.59;;;16.39;68.60
45345;BME280;31078;48.304;11.896;2022-10-31T09:28:11;96656.94;;;16.51;67.90
45345;BME280;31078;48.304;11.896;2022-10-31T09:30:38;96651.63;;;16.58;67.76
45345;BME280;31078;48.304;11.896;2022-10-31T09:33:05;96651.56;;;16.82;67.82
45345;BME280;31078;48.304;11.896;2022-10-31T09:35:34;96647.72;;;16.99;67.09
45345;BME280;31078;48.304;11.896;2022-10-31T09:38:00;96644.47;;;17.25;66.00
45345;BME280;31078;48.304;11.896;2022-10-31T09:40:29;96641.28;;;17.39;65.62
45345;BME280;31078;48.304;11.896;2022-10-31T09:42:59;96645.53;;;17.52;65.44
45345;BME280;31078;48.304;11.896;2022-10-31T09:45:29;96643.84;;;17.47;65.43
45345;BME280;31078;48.304;11.896;2022-10-31T09:48:02;96644.19;;;17.62;66.01
45345;BME280;31078;48.304;11.896;2022-10-31T09:50:31;96635.84;;;17.74;64.94
45345;BME280;31078;48.304;11.896;2022-10-31T09:53:03;96641.09;;;17.79;64.84
45345;BME280;31078;48.304;11.896;2022-10-31T09:55:32;96634.03;;;17.97;65.67
45345;BME280;31078;48.304;11.896;2022-10-31T09:58:01;96638.13;;;18.04;64.87
45345;BME280;31078;48.304;11.896;2022-10-31T10:00:28;96631.47;;;18.24;64.44
45345;BME280;31078;48.304;11.896;2022-10-31T10:02:57;96627.13;;;18.42;64.19
45345;BME280;31078;48.304;11.896;2022-10-31T10:05:27;96632.47;;;18.70;63.40
45345;BME280;31078;48.304;11.896;2022-10-31T10:07:59;96624.09;;;18.86;62.13
45345;BME280;31078;48.304;11.896;2022-10-31T10:10:29;96622.13;;;19.06;61.71
45345;BME280;31078;48.304;11.896;2022-10-31T10:13:04;96619.25;;;19.22;60.67
45345;BME280;31078;48.304;11.896;2022-10-31T10:15:37;96621.56;;;19.20;60.66
45345;BME280;31078;48.304;11.896;2022-10-31T10:18:09;96626.34;;;19.23;61.20
45345;BME280;31078;48.304;11.896;2022-10-31T10:20:39;96613.72;;;19.22;61.55
45345;BME280;31078;48.304;11.896;2022-10-31T10:23:15;96619.91;;;19.38;62.05
45345;BME280;31078;48.304;11.896;2022-10-31T10:25:45;96621.09;;;19.37;60.02
45345;BME280;31078;48.304;11.896;2022-10-31T10:28:17;96621.09;;;19.37;60.05
45345;BME280;31078;48.304;11.896;2022-10-31T10:30:46;96616.19;;;19.27;60.60
45345;BME280;31078;48.304;11.896;2022-10-31T10:33:16;96615.72;;;19.25;60.93
45345;BME280;31078;48.304;11.896;2022-10-31T10:35:46;96612.19;;;19.24;60.78
45345;BME280;31078;48.304;11.896;2022-10-31T10:38:15;96606.28;;;19.26;60.68
45345;BME280;31078;48.304;11.896;2022-10-31T10:40:44;96610.97;;;19.22;60.64
45345;BME280;31078;48.304;11.896;2022-10-31T10:43:22;96612.00;;;19.14;61.09
45345;BME280;31078;48.304;11.896;2022-10-31T10:45:49;96608.06;;;19.15;60.98
45345;BME280;31078;48.304;11.896;2022-10-31T10:48:36;96593.03;;;19.12;61.21
45345;BME280;31078;48.304;11.896;2022-10-31T10:51:05;96596.91;;;19.08;61.33
45345;BME280;31078;48.304;11.896;2022-10-31T10:53:39;96594.16;;;19.08;61.59
45345;BME280;31078;48.304;11.896;2022-10-31T10:56:30;96591.25;;;19.00;61.87
45345;BME280;31078;48.304;11.896;2022-10-31T10:58:59;96588.50;;;19.00;61.78
45345;BME280;31078;48.304;11.896;2022-10-31T11:01:26;96584.28;;;19.07;62.05
45345;BME280;31078;48.304;11.896;2022-10-31T11:03:53;96579.66;;;19.14;62.18
45345;BME280;31078;48.304;11.896;2022-10-31T11:06:20;96576.22;;;19.21;62.05
45345;BME280;31078;48.304;11.896;2022-10-31T11:08:50;96571.16;;;19.23;62.23
45345;BME280;31078;48.304;11.896;2022-10-31T11:11:24;96563.28;;;19.25;62.07
45345;BME280;31078;48.304;11.896;2022-10-31T11:13:56;96563.75;;;19.30;62.24
45345;BME280;31078;48.304;11.896;2022-10-31T11:16:30;96555.53;;;19.34;64.13
45345;BME280;31078;48.304;11.896;2022-10-31T11:19:05;96557.31;;;19.46;64.77
45345;BME280;31078;48.304;11.896;2022-10-31T11:21:33;96555.22;;;19.39;64.53
45345;BME280;31078;48.304;11.896;2022-10-31T11:24:03;96547.91;;;19.50;65.78
45345;BME280;31078;48.304;11.896;2022-10-31T11:26:30;96545.09;;;19.47;64.54
45345;BME280;31078;48.304;11.896;2022-10-31T11:29:01;96544.72;;;19.48;64.69
45345;BME280;31078;48.304;11.896;2022-10-31T11:31:28;96541.13;;;19.44;63.70
45345;BME280;31078;48.304;11.896;2022-10-31T11:33:57;96542.69;;;19.45;64.95
45345;BME280;31078;48.304;11.896;2022-10-31T11:36:24;96530.44;;;19.43;66.21
45345;BME280;31078;48.304;11.896;2022-10-31T11:38:51;96536.94;;;19.31;64.81
45345;BME280;31078;48.304;11.896;2022-10-31T11:41:19;96541.31;;;19.32;64.42
45345;BME280;31078;48.304;11.896;2022-10-31T11:43:50;96529.41;;;19.28;64.67
45345;BME280;31078;48.304;11.896;2022-10-31T11:46:21;96528.66;;;19.31;65.76
45345;BME280;31078;48.304;11.896;2022-10-31T11:48:48;96530.63;;;19.30;66.50
45345;BME280;31078;48.304;11.896;2022-10-31T11:51:20;96520.69;;;19.26;66.49
45345;BME280;31078;48.304;11.896;2022-10-31T11:53:49;96514.66;;;19.17;65.73
45345;BME280;31078;48.304;11.896;2022-10-31T11:56:17;96518.44;;;19.09;65.38
45345;BME280;31078;48.304;11.896;2022-10-31T11:58:54;96512.50;;;19.07;65.61
45345;BME280;31078;48.304;11.896;2022-10-31T12:01:23;96509.44;;;19.12;66.46
45345;BME280;31078;48.304;11.896;2022-10-31T12:03:53;96499.38;;;19.23;69.85
45345;BME280;31078;48.304;11.896;2022-10-31T12:06:21;96501.56;;;19.14;69.84
45345;BME280;31078;48.304;11.896;2022-10-31T12:08:49;96506.38;;;19.17;70.23
45345;BME280;31078;48.304;11.896;2022-10-31T12:11:23;96504.88;;;19.23;70.52
45345;BME280;31078;48.304;11.896;2022-10-31T12:13:58;96505.63;;;19.20;70.77
45345;BME280;31078;48.304;11.896;2022-10-31T12:16:28;96511.13;;;19.20;70.94
45345;BME280;31078;48.304;11.896;2022-10-31T12:18:58;96513.00;;;19.12;70.75
45345;BME280;31078;48.304;11.896;2022-10-31T12:21:35;96513.41;;;19.14;70.69
45345;BME280;31078;48.304;11.896;2022-10-31T12:24:07;96508.69;;;19.15;71.09
45345;BME280;31078;48.304;11.896;2022-10-31T12:26:39;96514.00;;;19.00;70.92
45345;BME280;31078;48.304;11.896;2022-10-31T12:29:12;96505.94;;;18.92;70.69
45345;BME280;31078;48.304;11.896;2022-10-31T12:31:49;96508.16;;;18.83;71.10
45345;BME280;31078;48.304;11.896;2022-10-31T12:34:27;96499.47;;;18.81;71.40
45345;BME280;31078;48.304;11.896;2022-10-31T12:36:58;96496.63;;;18.77;71.82
45345;BME280;31078;48.304;11.896;2022-10-31T12:39:29;96501.72;;;18.75;72.29
45345;BME280;31078;48.304;11.896;2022-10-31T12:42:01;96499.38;;;18.77;72.01
45345;BME280;31078;48.304;11.896;2022-10-31T12:44:46;96494.75;;;18.81;72.11
45345;BME280;31078;48.304;11.896;2022-10-31T12:47:25;96483.69;;;18.81;72.82
45345;BME280;31078;48.304;11.896;2022-10-31T12:49:58;96483.31;;;18.60;73.19
45345;BME280;31078;48.304;11.896;2022-10-31T12:52:32;96478.94;;;18.59;73.28
45345;BME280;31078;48.304;11.896;2022-10-31T12:55:05;96478.50;;;18.57;73.59
45345;BME280;31078;48.304;11.896;2022-10-31T12:57:36;96471.09;;;18.38;73.79
45345;BME280;31078;48.304;11.896;2022-10-31T13:00:09;96477.09;;;18.43;73.35
45345;BME280;31078;48.304;11.896;2022-10-31T13:02:39;96465.31;;;18.46;73.66
45345;BME280;31078;48.304;11.896;2022-10-31T13:05:11;96465.78;;;18.48;74.07